Time,TemperatureF,DewpointF,PressureIn,WindDirection,WindDirectionDegrees,WindSpeedMPH,WindSpeedGustMPH,Humidity,HourlyPrecipIn,Conditions,Clouds,dailyrainin,SoftwareType,DateUTC
2013-01-09 00:22:00,37.0,-99.9,30.32,SW,230,-999.0,-999.0,-999,-99.99,,,-99.99,,2013-01-09 05:22:00,
2013-01-09 00:33:00,37.0,-99.9,30.32,SW,230,-999.0,-999.0,-999,-99.99,,,-99.99,,2013-01-09 05:33:00,
2013-01-09 00:43:00,37.0,-99.9,30.32,SW,230,-999.0,-999.0,-999,-99.99,,,-99.99,,2013-01-09 05:43:00,
2013-01-09 00:52:00,39.0,-99.9,30.33,SW,230,-999.0,-999.0,-999,-99.99,,,-99.99,,2013-01-09 05:52:00,
2013-01-09 01:22:00,39.0,-99.9,30.33,SW,230,-999.0,-999.0,-999,-99.99,,,-99.99,,2013-01-09 06:22:00,
2013-01-09 01:32:00,39.0,-99.9,30.33,SW,230,-999.0,-999.0,-999,-99.99,,,-99.99,,2013-01-09 06:32:00,
2013-01-09 01:43:00,39.0,-99.9,30.33,SW,230,-999.0,-999.0,-999,-99.99,,,-99.99,,2013-01-09 06:43:00,
2013-01-09 01:52:00,40.0,-99.9,30.32,SW,230,-999.0,-999.0,-999,-99.99,,,-99.99,,2013-01-09 06:52:00,
2013-01-09 02:22:00,40.0,-99.9,30.32,SW,230,-999.0,-999.0,-999,-99.99,,,-99.99,,2013-01-09 07:22:00,
2013-01-09 02:32:00,40.0,-99.9,30.32,SW,230,-999.0,-999.0,-999,-99.99,,,-99.99,,2013-01-09 07:32:00,
2013-01-09 02:43:00,40.0,-99.9,30.32,SW,230,-999.0,-999.0,-999,-99.99,,,-99.99,,2013-01-09 07:43:00,
2013-01-09 03:52:00,37.0,-99.9,30.30,SW,230,-999.0,-999.0,-999,-99.99,,,-99.99,,2013-01-09 08:52:00,
2013-01-09 04:22:00,37.0,-99.9,30.30,SW,230,-999.0,-999.0,-999,-99.99,,,-99.99,,2013-01-09 09:22:00,
2013-01-09 04:32:00,37.0,-99.9,30.30,SW,230,-999.0,-999.0,-999,-99.99,,,-99.99,,2013-01-09 09:32:00,
2013-01-09 04:42:00,37.0,-99.9,30.30,SW,230,-999.0,-999.0,-999,-99.99,,,-99.99,,2013-01-09 09:42:00,
2013-01-09 04:52:00,38.0,-99.9,30.30,SW,230,-999.0,-999.0,-999,-99.99,,,-99.99,,2013-01-09 09:52:00,
2013-01-09 05:22:00,38.0,-99.9,30.30,SW,230,-999.0,-999.0,-999,-99.99,,,-99.99,,2013-01-09 10:22:00,
2013-01-09 05:32:00,38.0,-99.9,30.30,SW,230,-999.0,-999.0,-999,-99.99,,,-99.99,,2013-01-09 10:32:00,
2013-01-09 05:42:00,38.0,-99.9,30.30,SW,230,-999.0,-999.0,-999,-99.99,,,-99.99,,2013-01-09 10:42:00,
2013-01-09 05:52:00,38.0,-99.9,30.29,SW,230,-999.0,-999.0,-999,-99.99,,,-99.99,,2013-01-09 10:52:00,
2013-01-09 06:22:00,38.0,-99.9,30.29,SW,230,-999.0,-999.0,-999,-99.99,,,-99.99,,2013-01-09 11:22:00,
2013-01-09 06:33:00,38.0,-99.9,30.29,SW,230,-999.0,-999.0,-999,-99.99,,,-99.99,,2013-01-09 11:33:00,
2013-01-09 06:43:00,38.0,-99.9,30.29,SW,230,-999.0,-999.0,-999,-99.99,,,-99.99,,2013-01-09 11:43:00,
2013-01-09 06:52:00,40.0,-99.9,30.31,SW,230,-999.0,-999.0,-999,-99.99,,,-99.99,,2013-01-09 11:52:00,
2013-01-09 07:23:00,40.0,-99.9,30.31,SW,230,-999.0,-999.0,-999,-99.99,,,-99.99,,2013-01-09 12:23:00,
2013-01-09 07:33:00,40.0,-99.9,30.31,SW,230,-999.0,-999.0,-999,-99.99,,,-99.99,,2013-01-09 12:33:00,
2013-01-09 07:43:00,40.0,-99.9,30.31,SW,230,-999.0,-999.0,-999,-99.99,,,-99.99,,2013-01-09 12:43:00,
2013-01-09 07:52:00,36.0,-99.9,30.31,SSW,208,-999.0,-999.0,-999,-99.99,,,-99.99,,2013-01-09 12:52:00,
2013-01-09 08:23:00,36.0,-99.9,30.31,SSW,208,-999.0,-999.0,-999,-99.99,,,-99.99,,2013-01-09 13:23:00,
2013-01-09 08:33:00,36.0,-99.9,30.31,SSW,208,-999.0,-999.0,-999,-99.99,,,-99.99,,2013-01-09 13:33:00,
2013-01-09 08:43:00,36.0,-99.9,30.31,SSW,208,-999.0,-999.0,-999,-99.99,,,-99.99,,2013-01-09 13:43:00,
2013-01-09 08:52:00,40.0,-99.9,30.32,WSW,242,-999.0,2.0,-999,-99.99,,,-99.99,,2013-01-09 13:52:00,
2013-01-09 09:23:00,40.0,-99.9,30.32,WSW,242,-999.0,2.0,-999,-99.99,,,-99.99,,2013-01-09 14:23:00,
2013-01-09 09:33:00,40.0,-99.9,30.32,WSW,242,-999.0,2.0,-999,-99.99,,,-99.99,,2013-01-09 14:33:00,
2013-01-09 09:43:00,40.0,-99.9,30.32,WSW,242,-999.0,2.0,-999,-99.99,,,-99.99,,2013-01-09 14:43:00,
2013-01-09 09:52:00,43.0,-99.9,30.31,WSW,239,-999.0,3.0,-999,-99.99,,,-99.99,,2013-01-09 14:52:00,
2013-01-09 10:23:00,43.0,-99.9,30.31,WSW,239,-999.0,3.0,-999,-99.99,,,-99.99,,2013-01-09 15:23:00,
2013-01-09 10:33:00,43.0,-99.9,30.31,WSW,239,-999.0,3.0,-999,-99.99,,,-99.99,,2013-01-09 15:33:00,
2013-01-09 10:43:00,43.0,-99.9,30.31,WSW,239,-999.0,3.0,-999,-99.99,,,-99.99,,2013-01-09 15:43:00,
2013-01-09 10:52:00,47.0,-99.9,30.26,South,173,-999.0,-999.0,-999,-99.99,,,-99.99,,2013-01-09 15:52:00,
2013-01-09 11:23:00,47.0,-99.9,30.26,South,173,-999.0,-999.0,-999,-99.99,,,-99.99,,2013-01-09 16:23:00,
2013-01-09 11:34:00,47.0,-99.9,30.26,South,173,-999.0,-999.0,-999,-99.99,,,-99.99,,2013-01-09 16:34:00,
2013-01-09 11:43:00,47.0,-99.9,30.26,South,173,-999.0,-999.0,-999,-99.99,,,-99.99,,2013-01-09 16:43:00,
2013-01-09 11:52:00,46.0,-99.9,30.23,West,273,4.0,9.0,-999,-99.99,,,-99.99,,2013-01-09 16:52:00,
2013-01-09 12:23:00,46.0,-99.9,30.23,West,273,4.0,9.0,-999,-99.99,,,-99.99,,2013-01-09 17:23:00,
2013-01-09 12:33:00,46.0,-99.9,30.23,West,273,4.0,9.0,-999,-99.99,,,-99.99,,2013-01-09 17:33:00,
2013-01-09 12:43:00,46.0,-99.9,30.23,West,273,4.0,9.0,-999,-99.99,,,-99.99,,2013-01-09 17:43:00,
2013-01-09 12:52:00,50.0,-99.9,30.19,SSW,213,-999.0,5.0,-999,-99.99,,,-99.99,,2013-01-09 17:52:00,
2013-01-09 13:24:00,50.0,-99.9,30.19,SSW,213,-999.0,5.0,-999,-99.99,,,-99.99,,2013-01-09 18:24:00,
2013-01-09 13:33:00,50.0,-99.9,30.19,SSW,213,-999.0,5.0,-999,-99.99,,,-99.99,,2013-01-09 18:33:00,
2013-01-09 13:52:00,46.0,-99.9,30.19,South,188,4.0,9.0,-999,-99.99,,,-99.99,,2013-01-09 18:52:00,
2013-01-09 14:23:00,46.0,-99.9,30.19,South,188,4.0,9.0,-999,-99.99,,,-99.99,,2013-01-09 19:23:00,
2013-01-09 14:33:00,46.0,-99.9,30.19,South,188,4.0,9.0,-999,-99.99,,,-99.99,,2013-01-09 19:33:00,
2013-01-09 14:43:00,46.0,-99.9,30.19,South,188,4.0,9.0,-999,-99.99,,,-99.99,,2013-01-09 19:43:00,
2013-01-09 14:52:00,47.0,-99.9,30.17,SSW,196,-999.0,3.0,-999,-99.99,,,-99.99,,2013-01-09 19:52:00,
2013-01-09 15:23:00,47.0,-99.9,30.17,SSW,196,-999.0,3.0,-999,-99.99,,,-99.99,,2013-01-09 20:23:00,
2013-01-09 15:33:00,47.0,-99.9,30.17,SSW,196,-999.0,3.0,-999,-99.99,,,-99.99,,2013-01-09 20:33:00,
2013-01-09 15:43:00,47.0,-99.9,30.17,SSW,196,-999.0,3.0,-999,-99.99,,,-99.99,,2013-01-09 20:43:00,
2013-01-09 15:52:00,49.0,-99.9,30.09,WSW,238,5.0,8.0,-999,-99.99,,,-99.99,,2013-01-09 20:52:00,
2013-01-09 16:23:00,49.0,-99.9,30.09,WSW,238,5.0,8.0,-999,-99.99,,,-99.99,,2013-01-09 21:23:00,
2013-01-09 16:33:00,49.0,-99.9,30.09,WSW,238,5.0,8.0,-999,-99.99,,,-99.99,,2013-01-09 21:33:00,
2013-01-09 16:43:00,49.0,-99.9,30.09,WSW,238,5.0,8.0,-999,-99.99,,,-99.99,,2013-01-09 21:43:00,
2013-01-09 16:52:00,44.0,-99.9,30.11,WSW,255,8.0,11.0,-999,-99.99,,,-99.99,,2013-01-09 21:52:00,
2013-01-09 17:23:00,44.0,-99.9,30.11,WSW,255,8.0,11.0,-999,-99.99,,,-99.99,,2013-01-09 22:23:00,
2013-01-09 17:33:00,44.0,-99.9,30.11,WSW,255,8.0,11.0,-999,-99.99,,,-99.99,,2013-01-09 22:33:00,
2013-01-09 17:43:00,44.0,-99.9,30.11,WSW,255,8.0,11.0,-999,-99.99,,,-99.99,,2013-01-09 22:43:00,
2013-01-09 17:52:00,45.0,-99.9,30.12,SW,222,3.0,7.0,-999,-99.99,,,-99.99,,2013-01-09 22:52:00,
2013-01-09 18:33:00,45.0,-99.9,30.12,SW,222,3.0,7.0,-999,-99.99,,,-99.99,,2013-01-09 23:33:00,
2013-01-09 18:43:00,45.0,-99.9,30.12,SW,222,3.0,7.0,-999,-99.99,,,-99.99,,2013-01-09 23:43:00,
2013-01-09 18:52:00,51.0,-99.9,30.12,NW,306,-999.0,6.0,-999,-99.99,,,-99.99,,2013-01-09 23:52:00,
2013-01-09 19:33:00,51.0,-99.9,30.12,NW,306,-999.0,6.0,-999,-99.99,,,-99.99,,2013-01-10 00:33:00,
2013-01-09 19:43:00,51.0,-99.9,30.12,NW,306,-999.0,6.0,-999,-99.99,,,-99.99,,2013-01-10 00:43:00,
2013-01-09 19:52:00,50.0,-99.9,30.16,NW,308,11.0,13.0,-999,-99.99,,,-99.99,,2013-01-10 00:52:00,
2013-01-09 20:22:00,50.0,-99.9,30.16,NW,308,11.0,13.0,-999,-99.99,,,-99.99,,2013-01-10 01:22:00,
2013-01-09 20:33:00,50.0,-99.9,30.16,NW,308,11.0,13.0,-999,-99.99,,,-99.99,,2013-01-10 01:33:00,
2013-01-09 20:43:00,50.0,-99.9,30.16,NW,308,11.0,13.0,-999,-99.99,,,-99.99,,2013-01-10 01:43:00,
2013-01-09 20:52:00,49.0,-99.9,30.17,WNW,295,9.0,14.0,-999,-99.99,,,-99.99,,2013-01-10 01:52:00,
2013-01-09 21:22:00,49.0,-99.9,30.17,WNW,295,9.0,14.0,-999,-99.99,,,-99.99,,2013-01-10 02:22:00,
2013-01-09 21:33:00,49.0,-99.9,30.17,WNW,295,9.0,14.0,-999,-99.99,,,-99.99,,2013-01-10 02:33:00,
2013-01-09 21:43:00,49.0,-99.9,30.17,WNW,295,9.0,14.0,-999,-99.99,,,-99.99,,2013-01-10 02:43:00,
2013-01-09 21:52:00,48.0,-99.9,30.17,WNW,295,4.0,11.0,-999,-99.99,,,-99.99,,2013-01-10 02:52:00,
2013-01-09 22:22:00,48.0,-99.9,30.17,WNW,295,4.0,11.0,-999,-99.99,,,-99.99,,2013-01-10 03:22:00,
2013-01-09 22:33:00,48.0,-99.9,30.17,WNW,295,4.0,11.0,-999,-99.99,,,-99.99,,2013-01-10 03:33:00,
2013-01-09 22:43:00,48.0,-99.9,30.17,WNW,295,4.0,11.0,-999,-99.99,,,-99.99,,2013-01-10 03:43:00,
2013-01-09 22:52:00,48.0,-99.9,30.18,NW,308,9.0,13.0,-999,-99.99,,,-99.99,,2013-01-10 03:52:00,
2013-01-09 23:22:00,48.0,-99.9,30.18,NW,308,9.0,13.0,-999,-99.99,,,-99.99,,2013-01-10 04:22:00,
2013-01-09 23:32:00,48.0,-99.9,30.18,NW,308,9.0,13.0,-999,-99.99,,,-99.99,,2013-01-10 04:32:00,
2013-01-09 23:43:00,48.0,-99.9,30.18,NW,308,9.0,13.0,-999,-99.99,,,-99.99,,2013-01-10 04:43:00,
2013-01-09 23:52:00,47.0,-99.9,30.20,WNW,292,7.0,13.0,-999,-99.99,,,-99.99,,2013-01-10 04:52:00,